Terminal Aerodrome Forecast
Issued by NWS

Home | Current Version | Previous Version | Text Only | Print | Product List | Glossary On
Versions: 1 2 3 4 5 6 7 8 9 10 11 12 13 14 15 16 17
926
FTUS43 KAPX 131139
TAFMBL
TAF
KMBL 131139Z 1312/1412 30014G22KT 4SM -SHSN SCT025 OVC035
      TEMPO 1312/1315 1SM -SHSN BLSN BKN025 OVC035
     FM131800 32009KT 4SM -SHSN SCT025 OVC035
     FM140000 32006KT 5SM -SHSN SCT025 OVC040
     FM140500 VRB03KT P6SM VCSH OVC040
     FM140800 00000KT P6SM SKC
      AMD LTD TO CLD VIS AND WIND=

USA.gov is the U.S. government's official web portal to all federal, state and local government web resources and services.